• Join FlightAware (Why Join?)
  • Login
  • US Flag 
07:27AM EST


 

Airport Tracker/Info


-or-


 

Live Flight TrackerFlight Track Log ✈ OPT330 ✈ 28-Apr-2014 ✈ KDAL - KIAD

Flight Track Log - Related Links

Times and Time Zones

All times are in EDT time to prevent confusion due to time zone crossing. See the OPT330 flight status page for this flight to view local times or setup timezone preferences in your user account.

Time Position Orientation Groundspeed Altitude Reporting Facility
EDT Latitude Longitude Course Direction KTS MPH feet Rate Location/Type
09:47AM 32.9058 -96.9029 359° North 236 272 5,300  Level FlightAware ADS-B (KAFW)
09:47AM 32.9242 -96.8975 25° Northeast 257 296 6,200 2,640 Climbing FlightAware ADS-B (KAFW)
09:47AM 32.9327 -96.8910 37° Northeast 272 313 6,600 1,740 Climbing FlightAware ADS-B (KAFW)
09:47AM 32.9366 -96.8864 46° Northeast 280 322 6,700 1,200 Climbing FlightAware ADS-B (KAFW)
09:48AM 32.9479 -96.8597 74° East 300 345 7,000 3,240 Climbing FlightAware ADS-B (KAFW)
09:49AM 32.9316 -96.8921 87° East 322 371 11,300 2,880 Climbing FlightAware ADS-B
09:52AM 32.9705 -96.3358 86° East 391 450 20,000 2,700 Climbing FlightAware ADS-B (KHOU)
09:52AM 32.9780 -96.2737 82° East 394 453 21,300 2,460 Climbing FlightAware ADS-B (KHOU)
09:53AM 32.9876 -96.2078 80° East 407 468 22,500 2,340 Climbing FlightAware ADS-B (KHOU)
09:54AM 33.0095 -96.0493 81° East 416 479 25,300 2,040 Climbing FlightAware ADS-B (KHOU)
09:55AM 33.0213 -95.9625 80° East 443 510 26,400 1,620 Climbing FlightAware ADS-B (KHOU)
09:56AM 33.0377 -95.8449 80° East 455 524 27,600 1,800 Climbing FlightAware ADS-B (KHOU)
09:56AM 33.0450 -95.7914 80° East 456 525 28,400 2,040 Climbing FlightAware ADS-B (KHOU)
09:57AM 33.0606 -95.6706 81° East 464 534 30,000 1,920 Climbing FlightAware ADS-B (KHOU)
09:57AM 33.0702 -95.5937 80° East 471 542 30,900 1,920 Climbing FlightAware ADS-B (KHOU)
09:58AM 33.0812 -95.5377 72° East 461 531 31,900 1,560 Climbing FlightAware ADS-B (KHOU)
09:59AM 33.1298 -95.3820 70° East 483 556 33,300 1,140 Climbing FlightAware ADS-B (KHOU)
10:01AM 33.2354 -95.0253 73° East 503 579 35,700 1,020 Climbing FlightAware ADS-B (KDTN)
10:01AM 33.2596 -94.9432 70° East 506 582 36,300 1,140 Climbing FlightAware ADS-B (KDTN)
10:02AM 33.2849 -94.8584 71° East 504 580 36,900 1,200 Climbing FlightAware ADS-B (KDTN)
10:02AM 33.3016 -94.8029 70° East 487 560 37,400 1,020 Climbing FlightAware ADS-B (KHOU)
10:03AM 33.3279 -94.7142 71° East 493 567 37,900 900 Climbing FlightAware ADS-B (KDTN)
10:03AM 33.3516 -94.6352 70° East 489 563 38,400 1,020 Climbing FlightAware ADS-B (KDTN)
10:04AM 33.3777 -94.5476 72° East 481 554 39,100 1,140 Climbing FlightAware ADS-B (KDTN)
10:05AM 33.3993 -94.4694 72° East 473 544 39,700 1,200 Climbing FlightAware ADS-B (KDTN)
10:05AM 33.4402 -94.3311 71° East 462 532 40,800 1,020 Climbing FlightAware ADS-B (KDTN)
10:06AM 33.4639 -94.2476 71° East 459 528 41,300 960 Climbing FlightAware ADS-B (KDTN)
10:06AM 33.4698 -94.2273 70° East 456 525 41,600 900 Climbing FlightAware ADS-B (KHOU)
10:07AM 33.4894 -94.1595 71° East 454 522 41,900 600 Climbing FlightAware ADS-B (KDTN)
10:07AM 33.5107 -94.0859 71° East 455 524 42,200 480 Climbing FlightAware ADS-B (KDTN)
10:07AM 33.5124 -94.0800 71° East 454 522 42,200 960 Level FlightAware ADS-B (KHOU)
10:08AM 33.5360 -94.0142 65° Northeast 449 517 42,700 840 Climbing FlightAware ADS-B (KDTN)
10:08AM 33.5627 -93.9457 65° Northeast 450 518 43,000 600 Climbing FlightAware ADS-B (KDTN)
10:09AM 33.5867 -93.8848 65° Northeast 450 518 43,300 660 Climbing FlightAware ADS-B (KDTN)
10:09AM 33.6152 -93.8121 65° Northeast 447 514 43,700 900 Climbing FlightAware ADS-B (KDTN)
10:10AM 33.6519 -93.7207 65° Northeast 441 507 44,400 840 Climbing FlightAware ADS-B (KDTN)
10:11AM 33.6931 -93.6122 66° East 435 501 45,000 420 Climbing FlightAware ADS-B (KDTN)
10:11AM 33.7189 -93.5446 65° Northeast 439 505 45,000  Level FlightAware ADS-B (KDTN)
10:12AM 33.7449 -93.4770 65° Northeast 442 509 45,000  Level FlightAware ADS-B (KDTN)
10:12AM 33.7724 -93.4049 65° Northeast 443 510 45,000  Level FlightAware ADS-B (KHOU)
10:13AM 33.7975 -93.3388 65° Northeast 443 510 45,000  Level FlightAware ADS-B (KHOU)
10:13AM 33.8242 -93.2688 65° Northeast 445 512 45,000  Level FlightAware ADS-B (KHOU)
10:14AM 33.8467 -93.2098 66° East 447 514 45,000  Level FlightAware ADS-B (KDTN)
10:14AM 33.8759 -93.1330 65° Northeast 447 514 45,000  Level FlightAware ADS-B (KHOU)
10:15AM 33.8941 -93.0851 65° Northeast 447 514 45,000  Level FlightAware ADS-B (KHOU)
10:15AM 33.9262 -93.0000 65° Northeast 447 514 45,000  Level FlightAware ADS-B (KHOU)
10:15AM 33.9279 -92.9957 65° Northeast 447 514 45,000  Level FlightAware ADS-B (KHOU)
10:17AM 33.9897 -92.8294 65° Northeast 445 512 45,000  Level Fort Worth Center
10:18AM 34.0414 -92.6950 65° Northeast 445 512 45,000  Level Fort Worth Center
10:19AM 34.0978 -92.5458 65° Northeast 446 513 45,000  Level Memphis Center
10:20AM 34.1503 -92.4108 65° Northeast 446 513 45,000  Level Memphis Center
10:21AM 34.2036 -92.2761 64° Northeast 446 513 45,000  Level Memphis Center
10:22AM 34.2575 -92.1425 64° Northeast 446 513 45,000  Level Memphis Center
10:23AM 34.3117 -92.0094 64° Northeast 446 513 45,000  Level Memphis Center
10:24AM 34.3564 -91.8697 69° East 446 513 45,000  Level Memphis Center
10:25AM 34.4014 -91.7303 69° East 446 513 45,000  Level Memphis Center
10:26AM 34.4472 -91.5875 69° East 446 513 45,000  Level Memphis Center
10:27AM 34.5061 -91.4225 67° East 445 512 45,000  Level Memphis Center
10:28AM 34.5583 -91.2858 65° Northeast 445 512 45,000  Level Memphis Center
10:29AM 34.6075 -91.1483 66° East 445 512 45,000  Level Memphis Center
10:30AM 34.6564 -91.0089 67° East 447 514 45,000  Level Memphis Center
10:31AM 34.7064 -90.8697 66° East 447 514 45,000  Level Memphis Center
10:32AM 34.7550 -90.7297 67° East 448 516 45,000  Level Memphis Center
10:33AM 34.8039 -90.5889 67° East 449 517 45,000  Level Memphis Center
10:34AM 34.8542 -90.4475 67° East 450 518 45,000  Level Memphis Center
10:35AM 34.9047 -90.3061 66° East 452 520 45,000  Level Memphis Center
10:36AM 35.0047 -90.1722 48° Northeast 449 517 45,000  Level Memphis Center
10:37AM 35.1086 -90.0894 33° Northeast 445 512 45,000  Level Memphis Center
10:38AM 35.2131 -90.0064 33° Northeast 445 512 45,000  Level Memphis Center
10:39AM 35.3169 -89.9236 33° Northeast 445 512 45,000  Level Memphis Center
10:40AM 35.4217 -89.8400 33° Northeast 445 512 45,000  Level Memphis Center
10:41AM 35.5244 -89.7578 33° Northeast 444 511 45,000  Level Memphis Center
10:42AM 35.6289 -89.6742 33° Northeast 444 511 45,000  Level Memphis Center
10:43AM 35.7397 -89.5844 33° Northeast 444 511 45,000  Level Memphis Center
10:44AM 35.8439 -89.5017 33° Northeast 444 511 45,000  Level Memphis Center
10:45AM 35.9464 -89.4186 33° Northeast 444 511 45,000  Level Memphis Center
10:46AM 36.0489 -89.3353 33° Northeast 444 511 45,000  Level Memphis Center
10:47AM 36.1506 -89.2522 33° Northeast 444 511 45,000  Level Memphis Center
10:49AM 36.3719 -89.0692 34° Northeast 443 510 45,000  Level Memphis Center
10:50AM 36.4733 -88.9886 33° Northeast 442 509 45,000  Level Memphis Center
10:51AM 36.5750 -88.9050 33° Northeast 441 507 45,000  Level Memphis Center
10:52AM 36.6758 -88.8214 34° Northeast 441 507 45,000  Level Memphis Center
10:53AM 36.7769 -88.7381 33° Northeast 440 506 45,000  Level Memphis Center
10:55AM 36.8778 -88.6536 34° Northeast 439 505 45,000  Level Memphis Center
10:56AM 36.9769 -88.5708 34° Northeast 434 499 45,000  Level Memphis Center
10:57AM 37.0972 -88.4703 34° Northeast 433 498 45,000  Level Memphis Center
10:58AM 37.1964 -88.3875 34° Northeast 432 497 45,000  Level Memphis Center
10:59AM 37.2950 -88.3033 34° Northeast 431 496 45,000  Level Memphis Center
11:04AM 37.8207 -87.7919 59° Northeast 431 496 45,000  Level FlightAware ADS-B
11:05AM 37.8526 -87.7265 58° Northeast 432 497 45,000  Level FlightAware ADS-B
11:05AM 37.8868 -87.6564 59° Northeast 431 496 45,000  Level FlightAware ADS-B
11:06AM 37.9187 -87.5905 59° Northeast 431 496 45,000  Level FlightAware ADS-B
11:06AM 37.9459 -87.5340 58° Northeast 432 497 45,000  Level FlightAware ADS-B
11:07AM 37.9838 -87.4556 59° Northeast 431 496 45,000  Level FlightAware ADS-B
11:08AM 38.0413 -87.3354 59° Northeast 431 496 45,000  Level FlightAware ADS-B
11:08AM 38.0716 -87.2720 59° Northeast 430 495 45,000  Level FlightAware ADS-B
11:09AM 38.1062 -87.1995 59° Northeast 431 496 45,000  Level FlightAware ADS-B
11:10AM 38.1571 -87.0922 59° Northeast 432 497 45,000  Level FlightAware ADS-B
11:11AM 38.2360 -86.9257 59° Northeast 431 496 45,000  Level FlightAware ADS-B (EPWR / WRO)
11:12AM 38.2497 -86.8967 59° Northeast 431 496 45,000  Level FlightAware ADS-B (EPWR / WRO)
11:15AM 38.1571 -87.0922 59° Northeast 432 497 45,000  Level FlightAware ADS-B
11:15AM 38.2497 -86.8967 59° Northeast 431 496 45,000  Level FlightAware ADS-B (EPWR / WRO)
11:20AM 38.7897 -85.7324 59° Northeast 414 476 45,000  Level FlightAware ADS-B
11:21AM 38.8380 -85.6262 60° Northeast 427 491 45,000  Level FlightAware ADS-B
11:26AM 39.1467 -84.9380 60° Northeast 439 505 45,000  Level FlightAware ADS-B
11:28AM 39.2730 -84.6523 61° Northeast 441 507 45,000  Level FlightAware ADS-B
11:29AM 39.3218 -84.5412 61° Northeast 443 510 45,000  Level FlightAware ADS-B
11:30AM 39.3742 -84.4212 61° Northeast 445 512 45,000  Level FlightAware ADS-B
11:31AM 39.4520 -84.2426 61° Northeast 448 516 45,000  Level FlightAware ADS-B
11:32AM 39.4880 -84.1594 61° Northeast 448 516 45,000  Level FlightAware ADS-B
11:34AM 39.6058 -83.8864 61° Northeast 453 521 45,000  Level FlightAware ADS-B
11:35AM 39.6698 -83.7367 61° Northeast 454 522 45,000  Level FlightAware ADS-B
11:35AM 39.6917 -83.6854 61° Northeast 456 525 45,000  Level FlightAware ADS-B
11:36AM 39.7387 -83.5597 73° East 455 524 45,000  Level FlightAware ADS-B
11:36AM 39.7467 -83.5045 84° East 452 520 45,000  Level FlightAware ADS-B
11:37AM 39.7455 -83.4187 93° East 450 518 45,000  Level FlightAware ADS-B
11:37AM 39.7413 -83.3067 93° East 449 517 45,000  Level FlightAware ADS-B
11:40AM 39.7249 -82.8931 93° East 445 512 45,000  Level FlightAware ADS-B
11:40AM 39.7217 -82.8185 93° East 437 503 45,000  Level FlightAware ADS-B
11:41AM 39.7191 -82.7571 93° East 433 498 45,000  Level FlightAware ADS-B
11:42AM 39.7144 -82.6513 93° East 426 490 45,000  Level FlightAware ADS-B
11:42AM 39.7092 -82.5356 93° East 423 487 45,000  Level FlightAware ADS-B
11:43AM 39.7052 -82.4468 93° East 420 483 45,000  Level FlightAware ADS-B
11:44AM 39.7008 -82.3521 93° East 417 480 45,000  Level FlightAware ADS-B
11:44AM 39.6943 -82.2173 94° East 415 478 45,000  Level FlightAware ADS-B
11:45AM 39.6898 -82.1236 94° East 415 478 45,000  Level FlightAware ADS-B
11:46AM 39.6825 -81.9760 94° East 417 480 45,000  Level FlightAware ADS-B
11:47AM 39.6769 -81.8659 94° East 419 482 45,000  Level FlightAware ADS-B
11:47AM 39.6732 -81.7936 94° East 421 484 45,000  Level FlightAware ADS-B
11:49AM 39.6632 -81.6047 94° East 425 489 45,000  Level FlightAware ADS-B
11:49AM 39.6562 -81.4760 94° East 425 489 45,000  Level FlightAware ADS-B
11:50AM 39.6468 -81.3046 94° East 425 489 45,000  Level FlightAware ADS-B
11:52AM 39.6339 -81.0883 94° East 423 487 45,000  Level Indianapolis Center
11:53AM 39.6261 -80.9403 94° East 423 487 45,000  Level Cleveland Center
11:54AM 39.6169 -80.7900 94° East 422 486 45,000  Level Cleveland Center
11:55AM 39.6086 -80.6450 94° East 410 472 45,000  Level Cleveland Center
11:56AM 39.5983 -80.5044 95° East 403 464 45,000 -720 Level Cleveland Center
11:57AM 39.5903 -80.3628 94° East 397 457 43,600 -2,520 Descending Cleveland Center
11:58AM 39.5775 -80.1761 95° East 433 498 39,900 -3,300 Descending Cleveland Center
11:59AM 39.5656 -80.0028 95° East 477 549 36,900 -3,180 Descending Cleveland Center
12:00PM 39.5531 -79.8383 96° East 470 541 33,400 -3,420 Descending Cleveland Center
12:01PM 39.5225 -79.6719 103° East 474 545 29,900 -3,180 Descending Cleveland Center
12:02PM 39.4892 -79.5011 104° East 488 562 27,000 -1,860 Descending Cleveland Center
12:03PM 39.4547 -79.3378 105° East 473 544 26,200 -1,020 Descending Cleveland Center
12:04PM 39.4133 -79.1414 105° East 471 542 24,900 -1,740 Descending Cleveland Center
12:05PM 39.3858 -79.0125 105° East 477 549 23,100 -2,400 Descending Washington Center
12:06PM 39.3528 -78.8528 105° East 472 543 20,600 -2,520 Descending Washington Center
12:07PM 39.3194 -78.6928 105° East 466 536 18,100 -2,520 Descending Washington Center
12:08PM 39.2858 -78.5439 106° East 454 522 15,700 -2,280 Descending Washington Center
12:09PM 39.2558 -78.4033 105° East 427 491 13,600 -2,040 Descending Washington Center
12:10PM 39.2272 -78.2789 106° East 393 452 11,600 -2,040 Descending Washington Center
12:11PM 39.1897 -78.1839 117° Southeast 340 391 9,600 -2,340 Descending Washington Center
12:12PM 39.1458 -78.0939 122° Southeast 317 365 7,100 -2,340 Descending Washington Center
12:13PM 39.1353 -78.0025 98° East 263 303 5,000 -1,080 Descending Washington Center
12:14PM 39.1786 -77.9158 57° Northeast 247 284 5,000 -60 Level Washington Center
12:15PM 39.2178 -77.8258 61° Northeast 266 306 4,900 -60 Descending Washington Center
12:16PM 39.2403 -77.7328 73° East 271 312 4,900 -180 Level Washington Center
12:21PM 39.1514 -77.4568 179° South 160 184 3,800 -300 Descending FlightAware ADS-B
12:22PM 39.1000 -77.4500 179° South 145 167 3,100 -720 Descending Potomac TRACON
12:23PM 39.0500 -77.4500 180° South 149 171 2,200 -900 Descending Potomac TRACON
12:24PM 39.0167 -77.4667 201° Southwest 129 148 1,300 -840 Descending Potomac TRACON
12:25PM 38.9833 -77.4667 180° South 121 139 600 -720 Descending Potomac TRACON
12:27PM 38.9474 -77.4599 165° South  Level Estimated
12:34PM 38.9474 -77.4599 165° South  Level Estimated
12:35PM 38.9474 -77.4599 165° South  Level Estimated